sensor_id;sensor_type;location;lat;lon;timestamp;P1;durP1;ratioP1;P2;durP2;ratioP2
9854;SDS011;4966;48.112;9.282;2022-09-09T00:06:22;3.05;;;0.90;;
9854;SDS011;4966;48.112;9.282;2022-09-09T00:09:16;0.80;;;0.55;;
9854;SDS011;4966;48.112;9.282;2022-09-09T00:14:26;4.22;;;0.80;;
9854;SDS011;4966;48.112;9.282;2022-09-09T00:17:26;2.78;;;0.90;;
9854;SDS011;4966;48.112;9.282;2022-09-09T00:20:09;2.88;;;0.80;;
9854;SDS011;4966;48.112;9.282;2022-09-09T00:22:38;3.53;;;0.85;;
9854;SDS011;4966;48.112;9.282;2022-09-09T00:25:14;4.45;;;1.42;;
9854;SDS011;4966;48.112;9.282;2022-09-09T00:27:52;5.47;;;1.02;;
9854;SDS011;4966;48.112;9.282;2022-09-09T00:30:20;7.75;;;1.27;;
9854;SDS011;4966;48.112;9.282;2022-09-09T00:32:49;4.45;;;1.10;;
9854;SDS011;4966;48.112;9.282;2022-09-09T00:38:09;7.18;;;1.05;;
9854;SDS011;4966;48.112;9.282;2022-09-09T00:40:41;3.60;;;0.90;;
9854;SDS011;4966;48.112;9.282;2022-09-09T00:43:31;11.05;;;0.90;;
9854;SDS011;4966;48.112;9.282;2022-09-09T00:48:34;1.30;;;0.77;;
9854;SDS011;4966;48.112;9.282;2022-09-09T00:51:24;3.53;;;0.80;;
9854;SDS011;4966;48.112;9.282;2022-09-09T00:57:13;1.13;;;0.70;;
9854;SDS011;4966;48.112;9.282;2022-09-09T00:59:50;4.72;;;0.90;;
9854;SDS011;4966;48.112;9.282;2022-09-09T01:05:22;3.33;;;0.77;;
9854;SDS011;4966;48.112;9.282;2022-09-09T01:08:00;5.20;;;1.10;;
9854;SDS011;4966;48.112;9.282;2022-09-09T01:13:20;5.07;;;0.82;;
9854;SDS011;4966;48.112;9.282;2022-09-09T01:15:50;3.80;;;1.33;;
9854;SDS011;4966;48.112;9.282;2022-09-09T01:18:18;1.88;;;0.90;;
9854;SDS011;4966;48.112;9.282;2022-09-09T01:23:34;2.00;;;1.10;;
9854;SDS011;4966;48.112;9.282;2022-09-09T01:28:47;3.53;;;1.17;;
9854;SDS011;4966;48.112;9.282;2022-09-09T01:31:34;2.13;;;0.93;;
9854;SDS011;4966;48.112;9.282;2022-09-09T01:34:08;1.48;;;0.93;;
9854;SDS011;4966;48.112;9.282;2022-09-09T01:36:37;2.78;;;0.77;;
9854;SDS011;4966;48.112;9.282;2022-09-09T01:39:07;3.80;;;0.98;;
9854;SDS011;4966;48.112;9.282;2022-09-09T01:41:32;4.30;;;1.00;;
9854;SDS011;4966;48.112;9.282;2022-09-09T01:43:58;1.60;;;0.70;;
9854;SDS011;4966;48.112;9.282;2022-09-09T01:46:23;1.52;;;0.80;;
9854;SDS011;4966;48.112;9.282;2022-09-09T01:48:50;1.80;;;0.90;;
9854;SDS011;4966;48.112;9.282;2022-09-09T01:51:18;1.83;;;0.88;;
9854;SDS011;4966;48.112;9.282;2022-09-09T01:53:43;4.78;;;1.08;;
9854;SDS011;4966;48.112;9.282;2022-09-09T01:59:08;4.32;;;1.40;;
9854;SDS011;4966;48.112;9.282;2022-09-09T02:09:50;1.88;;;1.00;;
9854;SDS011;4966;48.112;9.282;2022-09-09T02:12:21;1.70;;;0.88;;
9854;SDS011;4966;48.112;9.282;2022-09-09T02:14:52;1.90;;;1.00;;
9854;SDS011;4966;48.112;9.282;2022-09-09T02:17:24;2.33;;;1.20;;
9854;SDS011;4966;48.112;9.282;2022-09-09T02:19:56;3.33;;;0.90;;
9854;SDS011;4966;48.112;9.282;2022-09-09T02:22:28;3.97;;;0.70;;
9854;SDS011;4966;48.112;9.282;2022-09-09T02:24:59;3.00;;;0.90;;
9854;SDS011;4966;48.112;9.282;2022-09-09T02:27:25;3.60;;;1.20;;
9854;SDS011;4966;48.112;9.282;2022-09-09T02:29:51;1.67;;;0.80;;
9854;SDS011;4966;48.112;9.282;2022-09-09T02:32:19;1.10;;;0.80;;
9854;SDS011;4966;48.112;9.282;2022-09-09T02:34:49;4.65;;;1.00;;
9854;SDS011;4966;48.112;9.282;2022-09-09T02:37:19;6.90;;;1.00;;
9854;SDS011;4966;48.112;9.282;2022-09-09T02:39:46;1.42;;;0.70;;
9854;SDS011;4966;48.112;9.282;2022-09-09T02:42:12;3.35;;;1.00;;
9854;SDS011;4966;48.112;9.282;2022-09-09T02:44:39;1.58;;;0.95;;
9854;SDS011;4966;48.112;9.282;2022-09-09T02:47:22;2.03;;;0.80;;
9854;SDS011;4966;48.112;9.282;2022-09-09T02:52:26;2.00;;;0.85;;
9854;SDS011;4966;48.112;9.282;2022-09-09T02:55:04;4.15;;;0.90;;
9854;SDS011;4966;48.112;9.282;2022-09-09T02:57:36;2.53;;;1.13;;
9854;SDS011;4966;48.112;9.282;2022-09-09T03:00:03;5.95;;;1.27;;
9854;SDS011;4966;48.112;9.282;2022-09-09T03:02:30;3.95;;;1.27;;
9854;SDS011;4966;48.112;9.282;2022-09-09T03:04:55;2.30;;;1.08;;
9854;SDS011;4966;48.112;9.282;2022-09-09T03:07:21;1.90;;;0.75;;
9854;SDS011;4966;48.112;9.282;2022-09-09T03:09:47;3.75;;;1.13;;
9854;SDS011;4966;48.112;9.282;2022-09-09T03:12:12;2.88;;;0.82;;
9854;SDS011;4966;48.112;9.282;2022-09-09T03:14:38;2.70;;;1.00;;
9854;SDS011;4966;48.112;9.282;2022-09-09T03:17:04;3.90;;;1.08;;
9854;SDS011;4966;48.112;9.282;2022-09-09T03:19:30;2.60;;;1.00;;
9854;SDS011;4966;48.112;9.282;2022-09-09T03:21:57;5.75;;;1.25;;
9854;SDS011;4966;48.112;9.282;2022-09-09T03:24:23;1.30;;;1.00;;
9854;SDS011;4966;48.112;9.282;2022-09-09T03:26:49;2.53;;;1.20;;
9854;SDS011;4966;48.112;9.282;2022-09-09T03:29:15;7.07;;;1.48;;
9854;SDS011;4966;48.112;9.282;2022-09-09T03:31:42;5.90;;;1.20;;
9854;SDS011;4966;48.112;9.282;2022-09-09T03:34:08;2.17;;;1.00;;
9854;SDS011;4966;48.112;9.282;2022-09-09T03:36:33;9.35;;;1.13;;
9854;SDS011;4966;48.112;9.282;2022-09-09T03:38:59;2.90;;;1.08;;
9854;SDS011;4966;48.112;9.282;2022-09-09T03:41:25;2.78;;;1.10;;
9854;SDS011;4966;48.112;9.282;2022-09-09T03:43:51;5.10;;;1.20;;
9854;SDS011;4966;48.112;9.282;2022-09-09T03:46:18;2.97;;;1.35;;
9854;SDS011;4966;48.112;9.282;2022-09-09T03:48:46;3.15;;;1.23;;
9854;SDS011;4966;48.112;9.282;2022-09-09T03:51:12;3.20;;;1.25;;
9854;SDS011;4966;48.112;9.282;2022-09-09T03:53:37;2.20;;;1.30;;
9854;SDS011;4966;48.112;9.282;2022-09-09T03:56:04;3.25;;;1.25;;
9854;SDS011;4966;48.112;9.282;2022-09-09T03:58:31;1.88;;;1.00;;
9854;SDS011;4966;48.112;9.282;2022-09-09T04:00:59;5.32;;;1.27;;
9854;SDS011;4966;48.112;9.282;2022-09-09T04:03:30;3.65;;;1.50;;
9854;SDS011;4966;48.112;9.282;2022-09-09T04:05:56;5.45;;;1.27;;
9854;SDS011;4966;48.112;9.282;2022-09-09T04:08:23;3.38;;;1.50;;
9854;SDS011;4966;48.112;9.282;2022-09-09T04:10:52;2.92;;;1.40;;
9854;SDS011;4966;48.112;9.282;2022-09-09T04:13:21;3.20;;;1.13;;
9854;SDS011;4966;48.112;9.282;2022-09-09T04:15:56;2.20;;;1.05;;
9854;SDS011;4966;48.112;9.282;2022-09-09T04:18:23;5.55;;;1.50;;
9854;SDS011;4966;48.112;9.282;2022-09-09T04:20:51;2.25;;;1.23;;
9854;SDS011;4966;48.112;9.282;2022-09-09T04:23:17;3.40;;;1.15;;
9854;SDS011;4966;48.112;9.282;2022-09-09T04:25:49;2.38;;;1.20;;
9854;SDS011;4966;48.112;9.282;2022-09-09T04:28:17;5.72;;;1.20;;
9854;SDS011;4966;48.112;9.282;2022-09-09T04:30:43;1.85;;;1.00;;
9854;SDS011;4966;48.112;9.282;2022-09-09T04:33:09;2.75;;;1.38;;
9854;SDS011;4966;48.112;9.282;2022-09-09T04:35:35;4.43;;;1.10;;
9854;SDS011;4966;48.112;9.282;2022-09-09T04:38:02;3.00;;;1.15;;
9854;SDS011;4966;48.112;9.282;2022-09-09T04:40:28;3.80;;;1.20;;
9854;SDS011;4966;48.112;9.282;2022-09-09T04:42:55;4.85;;;1.40;;
9854;SDS011;4966;48.112;9.282;2022-09-09T04:45:22;2.92;;;1.13;;
9854;SDS011;4966;48.112;9.282;2022-09-09T04:47:47;2.58;;;1.10;;
9854;SDS011;4966;48.112;9.282;2022-09-09T04:50:13;2.63;;;0.95;;
9854;SDS011;4966;48.112;9.282;2022-09-09T04:52:39;2.10;;;1.08;;
9854;SDS011;4966;48.112;9.282;2022-09-09T04:55:06;6.38;;;1.30;;
9854;SDS011;4966;48.112;9.282;2022-09-09T04:57:32;2.95;;;2.10;;
9854;SDS011;4966;48.112;9.282;2022-09-09T04:59:58;5.63;;;1.30;;
9854;SDS011;4966;48.112;9.282;2022-09-09T05:02:25;2.50;;;1.27;;
9854;SDS011;4966;48.112;9.282;2022-09-09T05:04:51;2.25;;;1.20;;
9854;SDS011;4966;48.112;9.282;2022-09-09T05:07:16;1.80;;;1.10;;
9854;SDS011;4966;48.112;9.282;2022-09-09T05:09:42;3.90;;;1.10;;
9854;SDS011;4966;48.112;9.282;2022-09-09T05:12:08;2.13;;;1.23;;
9854;SDS011;4966;48.112;9.282;2022-09-09T05:14:33;2.35;;;1.35;;
9854;SDS011;4966;48.112;9.282;2022-09-09T05:17:01;3.05;;;1.30;;
9854;SDS011;4966;48.112;9.282;2022-09-09T05:19:26;5.05;;;1.40;;
9854;SDS011;4966;48.112;9.282;2022-09-09T05:21:52;2.72;;;1.20;;
9854;SDS011;4966;48.112;9.282;2022-09-09T05:24:17;3.70;;;1.25;;
9854;SDS011;4966;48.112;9.282;2022-09-09T05:26:42;4.63;;;1.60;;
9854;SDS011;4966;48.112;9.282;2022-09-09T05:29:09;4.30;;;2.25;;
9854;SDS011;4966;48.112;9.282;2022-09-09T05:31:34;4.13;;;1.70;;
9854;SDS011;4966;48.112;9.282;2022-09-09T05:34:00;2.30;;;1.30;;
9854;SDS011;4966;48.112;9.282;2022-09-09T05:36:25;9.27;;;1.95;;
9854;SDS011;4966;48.112;9.282;2022-09-09T05:38:51;2.67;;;1.77;;
9854;SDS011;4966;48.112;9.282;2022-09-09T05:41:19;4.85;;;1.33;;
9854;SDS011;4966;48.112;9.282;2022-09-09T05:43:45;3.45;;;1.30;;
9854;SDS011;4966;48.112;9.282;2022-09-09T05:46:12;2.90;;;1.25;;
9854;SDS011;4966;48.112;9.282;2022-09-09T05:48:44;10.88;;;1.45;;
9854;SDS011;4966;48.112;9.282;2022-09-09T05:51:16;2.90;;;1.50;;
9854;SDS011;4966;48.112;9.282;2022-09-09T05:53:46;5.53;;;1.30;;
9854;SDS011;4966;48.112;9.282;2022-09-09T05:56:31;2.97;;;1.80;;
9854;SDS011;4966;48.112;9.282;2022-09-09T05:58:57;5.70;;;1.98;;
9854;SDS011;4966;48.112;9.282;2022-09-09T06:01:25;1.92;;;1.40;;
9854;SDS011;4966;48.112;9.282;2022-09-09T06:03:52;9.00;;;1.88;;
9854;SDS011;4966;48.112;9.282;2022-09-09T06:06:22;7.25;;;2.30;;
9854;SDS011;4966;48.112;9.282;2022-09-09T06:08:50;6.63;;;2.70;;
9854;SDS011;4966;48.112;9.282;2022-09-09T06:11:21;4.88;;;2.10;;
9854;SDS011;4966;48.112;9.282;2022-09-09T06:13:49;6.75;;;1.65;;
9854;SDS011;4966;48.112;9.282;2022-09-09T06:16:18;6.47;;;1.98;;
9854;SDS011;4966;48.112;9.282;2022-09-09T06:18:45;6.88;;;2.10;;
9854;SDS011;4966;48.112;9.282;2022-09-09T06:21:21;4.25;;;1.95;;
9854;SDS011;4966;48.112;9.282;2022-09-09T06:23:48;3.75;;;2.35;;
9854;SDS011;4966;48.112;9.282;2022-09-09T06:26:18;5.38;;;2.30;;
9854;SDS011;4966;48.112;9.282;2022-09-09T06:28:49;4.25;;;2.55;;
9854;SDS011;4966;48.112;9.282;2022-09-09T06:31:17;8.68;;;6.68;;
9854;SDS011;4966;48.112;9.282;2022-09-09T06:33:46;5.43;;;4.00;;
9854;SDS011;4966;48.112;9.282;2022-09-09T06:36:13;7.80;;;2.38;;
9854;SDS011;4966;48.112;9.282;2022-09-09T06:38:40;3.83;;;2.63;;
9854;SDS011;4966;48.112;9.282;2022-09-09T06:41:07;6.22;;;2.30;;
9854;SDS011;4966;48.112;9.282;2022-09-09T06:43:33;6.22;;;4.10;;
9854;SDS011;4966;48.112;9.282;2022-09-09T06:46:01;3.90;;;2.00;;
9854;SDS011;4966;48.112;9.282;2022-09-09T06:48:28;7.30;;;2.47;;
9854;SDS011;4966;48.112;9.282;2022-09-09T06:51:04;3.47;;;1.90;;
9854;SDS011;4966;48.112;9.282;2022-09-09T06:53:32;7.18;;;2.78;;
9854;SDS011;4966;48.112;9.282;2022-09-09T06:56:02;4.00;;;3.08;;
9854;SDS011;4966;48.112;9.282;2022-09-09T06:58:42;4.90;;;2.35;;
9854;SDS011;4966;48.112;9.282;2022-09-09T07:01:09;5.03;;;2.28;;
9854;SDS011;4966;48.112;9.282;2022-09-09T07:03:40;6.05;;;2.47;;
9854;SDS011;4966;48.112;9.282;2022-09-09T07:06:13;5.20;;;1.80;;
9854;SDS011;4966;48.112;9.282;2022-09-09T07:08:40;5.75;;;2.00;;
9854;SDS011;4966;48.112;9.282;2022-09-09T07:11:06;6.15;;;2.05;;
9854;SDS011;4966;48.112;9.282;2022-09-09T07:13:33;6.72;;;2.20;;
9854;SDS011;4966;48.112;9.282;2022-09-09T07:21:00;4.22;;;2.13;;
9854;SDS011;4966;48.112;9.282;2022-09-09T07:23:27;8.02;;;2.30;;
9854;SDS011;4966;48.112;9.282;2022-09-09T07:25:53;5.72;;;2.70;;
9854;SDS011;4966;48.112;9.282;2022-09-09T07:28:19;5.13;;;1.80;;
9854;SDS011;4966;48.112;9.282;2022-09-09T07:31:07;5.47;;;2.45;;
9854;SDS011;4966;48.112;9.282;2022-09-09T07:33:33;3.35;;;2.08;;
9854;SDS011;4966;48.112;9.282;2022-09-09T07:38:30;3.00;;;2.03;;
9854;SDS011;4966;48.112;9.282;2022-09-09T07:41:03;5.05;;;1.60;;
9854;SDS011;4966;48.112;9.282;2022-09-09T07:43:30;3.83;;;2.10;;
9854;SDS011;4966;48.112;9.282;2022-09-09T07:45:59;5.38;;;2.25;;
9854;SDS011;4966;48.112;9.282;2022-09-09T07:48:26;3.13;;;1.65;;
9854;SDS011;4966;48.112;9.282;2022-09-09T07:50:52;3.53;;;2.10;;
9854;SDS011;4966;48.112;9.282;2022-09-09T07:53:17;3.72;;;1.48;;
9854;SDS011;4966;48.112;9.282;2022-09-09T07:55:43;5.07;;;1.85;;
9854;SDS011;4966;48.112;9.282;2022-09-09T07:58:08;4.53;;;1.60;;
9854;SDS011;4966;48.112;9.282;2022-09-09T08:00:33;2.20;;;1.30;;
9854;SDS011;4966;48.112;9.282;2022-09-09T08:02:58;2.70;;;1.30;;
9854;SDS011;4966;48.112;9.282;2022-09-09T08:05:27;3.60;;;1.50;;
9854;SDS011;4966;48.112;9.282;2022-09-09T08:07:52;7.70;;;1.80;;
9854;SDS011;4966;48.112;9.282;2022-09-09T08:10:17;2.60;;;1.38;;
9854;SDS011;4966;48.112;9.282;2022-09-09T08:12:43;5.32;;;1.27;;
9854;SDS011;4966;48.112;9.282;2022-09-09T08:15:09;3.65;;;1.30;;
9854;SDS011;4966;48.112;9.282;2022-09-09T08:17:34;4.40;;;1.20;;
9854;SDS011;4966;48.112;9.282;2022-09-09T08:19:59;3.58;;;1.23;;
9854;SDS011;4966;48.112;9.282;2022-09-09T08:22:29;2.72;;;1.38;;
9854;SDS011;4966;48.112;9.282;2022-09-09T08:24:54;5.18;;;1.00;;
9854;SDS011;4966;48.112;9.282;2022-09-09T08:27:20;3.40;;;1.20;;
9854;SDS011;4966;48.112;9.282;2022-09-09T08:29:46;1.85;;;0.98;;
9854;SDS011;4966;48.112;9.282;2022-09-09T08:32:12;5.55;;;1.00;;
9854;SDS011;4966;48.112;9.282;2022-09-09T08:34:38;3.05;;;1.10;;
9854;SDS011;4966;48.112;9.282;2022-09-09T08:37:03;2.33;;;0.90;;
9854;SDS011;4966;48.112;9.282;2022-09-09T08:39:28;2.53;;;1.00;;
9854;SDS011;4966;48.112;9.282;2022-09-09T08:44:50;3.63;;;1.00;;
9854;SDS011;4966;48.112;9.282;2022-09-09T08:50:28;4.13;;;1.20;;
9854;SDS011;4966;48.112;9.282;2022-09-09T08:53:01;3.65;;;0.80;;
9854;SDS011;4966;48.112;9.282;2022-09-09T08:55:37;3.25;;;1.00;;
9854;SDS011;4966;48.112;9.282;2022-09-09T08:58:17;4.93;;;1.20;;
9854;SDS011;4966;48.112;9.282;2022-09-09T09:00:47;3.60;;;1.05;;
9854;SDS011;4966;48.112;9.282;2022-09-09T09:03:28;2.42;;;1.00;;
9854;SDS011;4966;48.112;9.282;2022-09-09T09:06:11;4.95;;;1.10;;
9854;SDS011;4966;48.112;9.282;2022-09-09T09:08:56;4.57;;;0.90;;
9854;SDS011;4966;48.112;9.282;2022-09-09T09:11:33;2.10;;;0.82;;
9854;SDS011;4966;48.112;9.282;2022-09-09T09:14:20;3.17;;;0.77;;
9854;SDS011;4966;48.112;9.282;2022-09-09T09:16:53;4.55;;;0.80;;
9854;SDS011;4966;48.112;9.282;2022-09-09T09:19:19;1.95;;;0.70;;
9854;SDS011;4966;48.112;9.282;2022-09-09T09:21:50;1.42;;;0.55;;
9854;SDS011;4966;48.112;9.282;2022-09-09T09:24:18;4.03;;;0.80;;
9854;SDS011;4966;48.112;9.282;2022-09-09T09:26:45;0.75;;;0.40;;
9854;SDS011;4966;48.112;9.282;2022-09-09T09:29:12;1.58;;;0.47;;
9854;SDS011;4966;48.112;9.282;2022-09-09T09:31:44;1.90;;;0.50;;
9854;SDS011;4966;48.112;9.282;2022-09-09T09:34:13;1.85;;;0.60;;
9854;SDS011;4966;48.112;9.282;2022-09-09T09:36:42;2.25;;;0.50;;
9854;SDS011;4966;48.112;9.282;2022-09-09T09:39:21;1.70;;;0.60;;
9854;SDS011;4966;48.112;9.282;2022-09-09T09:42:14;1.67;;;0.40;;
9854;SDS011;4966;48.112;9.282;2022-09-09T09:44:42;2.75;;;0.50;;
9854;SDS011;4966;48.112;9.282;2022-09-09T09:47:18;1.83;;;0.57;;
9854;SDS011;4966;48.112;9.282;2022-09-09T09:49:51;2.85;;;0.50;;
9854;SDS011;4966;48.112;9.282;2022-09-09T09:52:21;1.77;;;0.60;;
9854;SDS011;4966;48.112;9.282;2022-09-09T09:54:48;1.75;;;0.50;;
9854;SDS011;4966;48.112;9.282;2022-09-09T09:57:15;2.75;;;0.47;;
9854;SDS011;4966;48.112;9.282;2022-09-09T09:59:41;2.13;;;0.50;;
9854;SDS011;4966;48.112;9.282;2022-09-09T10:02:14;1.17;;;0.38;;
9854;SDS011;4966;48.112;9.282;2022-09-09T10:07:47;4.47;;;0.80;;
9854;SDS011;4966;48.112;9.282;2022-09-09T10:13:11;0.73;;;0.40;;
9854;SDS011;4966;48.112;9.282;2022-09-09T10:15:44;1.70;;;0.50;;
9854;SDS011;4966;48.112;9.282;2022-09-09T10:21:31;1.55;;;0.50;;
9854;SDS011;4966;48.112;9.282;2022-09-09T10:27:00;2.70;;;0.65;;
9854;SDS011;4966;48.112;9.282;2022-09-09T10:29:31;1.00;;;0.40;;
9854;SDS011;4966;48.112;9.282;2022-09-09T10:39:48;4.20;;;0.50;;
9854;SDS011;4966;48.112;9.282;2022-09-09T10:42:23;1.83;;;0.55;;
9854;SDS011;4966;48.112;9.282;2022-09-09T10:45:04;3.28;;;0.47;;
9854;SDS011;4966;48.112;9.282;2022-09-09T10:47:55;2.90;;;0.60;;
9854;SDS011;4966;48.112;9.282;2022-09-09T10:53:51;2.10;;;0.40;;
9854;SDS011;4966;48.112;9.282;2022-09-09T10:56:36;3.28;;;0.40;;
9854;SDS011;4966;48.112;9.282;2022-09-09T11:01:58;3.38;;;0.40;;
9854;SDS011;4966;48.112;9.282;2022-09-09T11:05:02;2.70;;;0.40;;
9854;SDS011;4966;48.112;9.282;2022-09-09T11:07:27;1.70;;;0.38;;
9854;SDS011;4966;48.112;9.282;2022-09-09T11:10:03;1.42;;;0.25;;
9854;SDS011;4966;48.112;9.282;2022-09-09T11:12:41;1.30;;;0.30;;
9854;SDS011;4966;48.112;9.282;2022-09-09T11:17:52;0.40;;;0.20;;
9854;SDS011;4966;48.112;9.282;2022-09-09T11:20:21;2.70;;;0.38;;
9854;SDS011;4966;48.112;9.282;2022-09-09T11:25:23;1.85;;;0.40;;
9854;SDS011;4966;48.112;9.282;2022-09-09T11:44:39;1.17;;;0.30;;
9854;SDS011;4966;48.112;9.282;2022-09-09T11:47:25;3.35;;;0.50;;
9854;SDS011;4966;48.112;9.282;2022-09-09T11:49:55;2.10;;;0.50;;
9854;SDS011;4966;48.112;9.282;2022-09-09T11:52:42;1.30;;;0.43;;
9854;SDS011;4966;48.112;9.282;2022-09-09T11:55:28;2.03;;;0.60;;
9854;SDS011;4966;48.112;9.282;2022-09-09T11:58:02;1.30;;;0.40;;
9854;SDS011;4966;48.112;9.282;2022-09-09T12:03:02;2.25;;;0.50;;
9854;SDS011;4966;48.112;9.282;2022-09-09T12:05:42;2.88;;;0.55;;
9854;SDS011;4966;48.112;9.282;2022-09-09T12:08:11;2.47;;;0.50;;
9854;SDS011;4966;48.112;9.282;2022-09-09T12:10:53;1.88;;;0.52;;
9854;SDS011;4966;48.112;9.282;2022-09-09T12:13:22;1.88;;;0.30;;
9854;SDS011;4966;48.112;9.282;2022-09-09T12:15:50;1.45;;;0.40;;
9854;SDS011;4966;48.112;9.282;2022-09-09T12:18:21;2.17;;;0.45;;
9854;SDS011;4966;48.112;9.282;2022-09-09T12:20:52;0.55;;;0.28;;
9854;SDS011;4966;48.112;9.282;2022-09-09T12:23:29;3.10;;;0.52;;
9854;SDS011;4966;48.112;9.282;2022-09-09T12:31:30;1.90;;;0.50;;
9854;SDS011;4966;48.112;9.282;2022-09-09T12:34:49;2.03;;;0.50;;
9854;SDS011;4966;48.112;9.282;2022-09-09T12:36:52;2.25;;;0.55;;
9854;SDS011;4966;48.112;9.282;2022-09-09T12:39:26;2.67;;;0.40;;
9854;SDS011;4966;48.112;9.282;2022-09-09T12:41:53;1.20;;;0.45;;
9854;SDS011;4966;48.112;9.282;2022-09-09T12:46:48;3.03;;;0.50;;
9854;SDS011;4966;48.112;9.282;2022-09-09T12:51:56;3.63;;;0.50;;
9854;SDS011;4966;48.112;9.282;2022-09-09T12:54:22;0.95;;;0.35;;
9854;SDS011;4966;48.112;9.282;2022-09-09T12:56:48;3.95;;;0.55;;
9854;SDS011;4966;48.112;9.282;2022-09-09T12:59:24;3.15;;;0.40;;
9854;SDS011;4966;48.112;9.282;2022-09-09T13:01:55;3.28;;;0.70;;
9854;SDS011;4966;48.112;9.282;2022-09-09T13:04:21;3.08;;;0.50;;
9854;SDS011;4966;48.112;9.282;2022-09-09T13:06:47;1.90;;;0.40;;
9854;SDS011;4966;48.112;9.282;2022-09-09T13:09:14;1.33;;;0.40;;
9854;SDS011;4966;48.112;9.282;2022-09-09T13:11:43;4.65;;;0.47;;
9854;SDS011;4966;48.112;9.282;2022-09-09T13:14:15;1.00;;;0.40;;
9854;SDS011;4966;48.112;9.282;2022-09-09T13:16:53;2.20;;;0.40;;
9854;SDS011;4966;48.112;9.282;2022-09-09T13:19:23;1.77;;;0.35;;
9854;SDS011;4966;48.112;9.282;2022-09-09T13:21:54;2.53;;;0.32;;
9854;SDS011;4966;48.112;9.282;2022-09-09T13:24:30;5.10;;;0.50;;
9854;SDS011;4966;48.112;9.282;2022-09-09T13:26:59;4.57;;;0.43;;
9854;SDS011;4966;48.112;9.282;2022-09-09T13:29:27;1.70;;;0.30;;
9854;SDS011;4966;48.112;9.282;2022-09-09T13:31:53;1.35;;;0.40;;
9854;SDS011;4966;48.112;9.282;2022-09-09T13:34:29;2.28;;;0.40;;
9854;SDS011;4966;48.112;9.282;2022-09-09T13:37:02;3.50;;;0.47;;
9854;SDS011;4966;48.112;9.282;2022-09-09T13:39:50;2.38;;;0.30;;
9854;SDS011;4966;48.112;9.282;2022-09-09T13:42:25;3.03;;;0.50;;
9854;SDS011;4966;48.112;9.282;2022-09-09T13:44:53;1.77;;;0.38;;
9854;SDS011;4966;48.112;9.282;2022-09-09T13:47:34;1.38;;;0.17;;
9854;SDS011;4966;48.112;9.282;2022-09-09T13:52:58;1.67;;;0.30;;
9854;SDS011;4966;48.112;9.282;2022-09-09T13:55:27;2.50;;;0.30;;
9854;SDS011;4966;48.112;9.282;2022-09-09T13:57:55;2.45;;;0.35;;
9854;SDS011;4966;48.112;9.282;2022-09-09T14:00:29;4.03;;;1.23;;
9854;SDS011;4966;48.112;9.282;2022-09-09T14:05:21;1.45;;;0.50;;
9854;SDS011;4966;48.112;9.282;2022-09-09T14:07:47;1.27;;;0.20;;
9854;SDS011;4966;48.112;9.282;2022-09-09T14:10:14;2.58;;;0.60;;
9854;SDS011;4966;48.112;9.282;2022-09-09T14:12:39;2.30;;;0.30;;
9854;SDS011;4966;48.112;9.282;2022-09-09T14:15:05;3.05;;;0.40;;
9854;SDS011;4966;48.112;9.282;2022-09-09T14:17:32;0.95;;;0.30;;
9854;SDS011;4966;48.112;9.282;2022-09-09T14:19:58;2.92;;;0.40;;
9854;SDS011;4966;48.112;9.282;2022-09-09T14:22:24;0.85;;;0.20;;
9854;SDS011;4966;48.112;9.282;2022-09-09T14:24:50;2.90;;;0.30;;
9854;SDS011;4966;48.112;9.282;2022-09-09T14:27:16;1.77;;;0.35;;
9854;SDS011;4966;48.112;9.282;2022-09-09T14:29:42;1.20;;;0.30;;
9854;SDS011;4966;48.112;9.282;2022-09-09T14:32:09;1.10;;;0.28;;
9854;SDS011;4966;48.112;9.282;2022-09-09T14:34:34;1.25;;;0.28;;
9854;SDS011;4966;48.112;9.282;2022-09-09T14:37:00;2.00;;;0.22;;
9854;SDS011;4966;48.112;9.282;2022-09-09T14:39:26;1.80;;;0.40;;
9854;SDS011;4966;48.112;9.282;2022-09-09T14:41:51;2.72;;;0.30;;
9854;SDS011;4966;48.112;9.282;2022-09-09T14:44:17;0.88;;;0.30;;
9854;SDS011;4966;48.112;9.282;2022-09-09T14:46:43;3.92;;;0.30;;
9854;SDS011;4966;48.112;9.282;2022-09-09T14:49:09;2.55;;;0.40;;
9854;SDS011;4966;48.112;9.282;2022-09-09T14:54:03;3.45;;;0.30;;
9854;SDS011;4966;48.112;9.282;2022-09-09T14:56:29;1.25;;;0.28;;
9854;SDS011;4966;48.112;9.282;2022-09-09T14:59:01;1.50;;;0.20;;
9854;SDS011;4966;48.112;9.282;2022-09-09T15:01:27;0.95;;;0.20;;
9854;SDS011;4966;48.112;9.282;2022-09-09T15:04:02;1.75;;;0.30;;
9854;SDS011;4966;48.112;9.282;2022-09-09T15:08:57;2.55;;;0.30;;
9854;SDS011;4966;48.112;9.282;2022-09-09T15:11:25;1.92;;;0.30;;
9854;SDS011;4966;48.112;9.282;2022-09-09T15:13:52;1.88;;;0.32;;
9854;SDS011;4966;48.112;9.282;2022-09-09T15:16:18;2.38;;;0.40;;
9854;SDS011;4966;48.112;9.282;2022-09-09T15:18:45;1.13;;;0.28;;
9854;SDS011;4966;48.112;9.282;2022-09-09T15:21:13;1.60;;;0.13;;
9854;SDS011;4966;48.112;9.282;2022-09-09T15:23:44;2.70;;;0.47;;
9854;SDS011;4966;48.112;9.282;2022-09-09T15:26:09;2.25;;;0.20;;
9854;SDS011;4966;48.112;9.282;2022-09-09T15:28:36;0.77;;;0.22;;
9854;SDS011;4966;48.112;9.282;2022-09-09T15:31:06;1.88;;;0.40;;
9854;SDS011;4966;48.112;9.282;2022-09-09T15:33:35;3.22;;;0.70;;
9854;SDS011;4966;48.112;9.282;2022-09-09T15:36:12;2.97;;;0.45;;
9854;SDS011;4966;48.112;9.282;2022-09-09T15:38:40;5.00;;;0.50;;
9854;SDS011;4966;48.112;9.282;2022-09-09T15:41:05;1.50;;;0.15;;
9854;SDS011;4966;48.112;9.282;2022-09-09T15:43:31;0.45;;;0.20;;
9854;SDS011;4966;48.112;9.282;2022-09-09T15:45:59;2.13;;;0.38;;
9854;SDS011;4966;48.112;9.282;2022-09-09T15:48:44;1.92;;;0.40;;
9854;SDS011;4966;48.112;9.282;2022-09-09T15:51:10;0.57;;;0.30;;
9854;SDS011;4966;48.112;9.282;2022-09-09T15:53:39;2.72;;;1.13;;
9854;SDS011;4966;48.112;9.282;2022-09-09T15:56:05;4.85;;;0.30;;
9854;SDS011;4966;48.112;9.282;2022-09-09T15:58:34;1.48;;;0.68;;
9854;SDS011;4966;48.112;9.282;2022-09-09T16:01:07;1.70;;;0.20;;
9854;SDS011;4966;48.112;9.282;2022-09-09T16:03:37;0.32;;;0.20;;
9854;SDS011;4966;48.112;9.282;2022-09-09T16:06:04;2.35;;;0.40;;
9854;SDS011;4966;48.112;9.282;2022-09-09T16:08:37;1.75;;;0.30;;
9854;SDS011;4966;48.112;9.282;2022-09-09T16:11:05;0.60;;;0.10;;
9854;SDS011;4966;48.112;9.282;2022-09-09T16:13:33;1.60;;;0.20;;
9854;SDS011;4966;48.112;9.282;2022-09-09T16:15:59;5.88;;;1.75;;
9854;SDS011;4966;48.112;9.282;2022-09-09T16:18:25;3.78;;;0.20;;
9854;SDS011;4966;48.112;9.282;2022-09-09T16:20:56;3.63;;;0.30;;
9854;SDS011;4966;48.112;9.282;2022-09-09T16:23:22;1.80;;;0.20;;
9854;SDS011;4966;48.112;9.282;2022-09-09T16:25:54;1.88;;;0.20;;
9854;SDS011;4966;48.112;9.282;2022-09-09T16:28:20;2.38;;;0.20;;
9854;SDS011;4966;48.112;9.282;2022-09-09T16:30:45;2.42;;;0.20;;
9854;SDS011;4966;48.112;9.282;2022-09-09T16:33:11;0.63;;;0.10;;
9854;SDS011;4966;48.112;9.282;2022-09-09T16:35:39;0.95;;;0.20;;
9854;SDS011;4966;48.112;9.282;2022-09-09T16:38:06;1.10;;;0.25;;
9854;SDS011;4966;48.112;9.282;2022-09-09T16:40:33;2.05;;;0.45;;
9854;SDS011;4966;48.112;9.282;2022-09-09T16:42:59;0.85;;;0.10;;
9854;SDS011;4966;48.112;9.282;2022-09-09T16:45:26;1.15;;;0.30;;
9854;SDS011;4966;48.112;9.282;2022-09-09T16:47:51;0.82;;;0.25;;
9854;SDS011;4966;48.112;9.282;2022-09-09T16:50:17;0.77;;;0.30;;
9854;SDS011;4966;48.112;9.282;2022-09-09T16:52:42;1.02;;;0.20;;
9854;SDS011;4966;48.112;9.282;2022-09-09T16:55:08;1.80;;;0.20;;
9854;SDS011;4966;48.112;9.282;2022-09-09T16:57:34;0.93;;;0.20;;
9854;SDS011;4966;48.112;9.282;2022-09-09T17:00:00;1.75;;;0.20;;
9854;SDS011;4966;48.112;9.282;2022-09-09T17:02:26;0.93;;;0.20;;
9854;SDS011;4966;48.112;9.282;2022-09-09T17:04:51;0.75;;;0.20;;
9854;SDS011;4966;48.112;9.282;2022-09-09T17:07:16;1.30;;;0.22;;
9854;SDS011;4966;48.112;9.282;2022-09-09T17:09:44;0.40;;;0.10;;
9854;SDS011;4966;48.112;9.282;2022-09-09T17:12:10;1.33;;;0.30;;
9854;SDS011;4966;48.112;9.282;2022-09-09T17:14:37;1.50;;;0.32;;
9854;SDS011;4966;48.112;9.282;2022-09-09T17:17:03;1.13;;;0.20;;
9854;SDS011;4966;48.112;9.282;2022-09-09T17:19:29;2.70;;;0.47;;
9854;SDS011;4966;48.112;9.282;2022-09-09T17:21:55;1.05;;;0.30;;
9854;SDS011;4966;48.112;9.282;2022-09-09T17:24:22;1.13;;;0.40;;
9854;SDS011;4966;48.112;9.282;2022-09-09T17:26:47;0.85;;;0.15;;
9854;SDS011;4966;48.112;9.282;2022-09-09T17:29:13;0.77;;;0.20;;
9854;SDS011;4966;48.112;9.282;2022-09-09T17:31:38;2.03;;;0.43;;
9854;SDS011;4966;48.112;9.282;2022-09-09T17:34:05;1.20;;;0.30;;
9854;SDS011;4966;48.112;9.282;2022-09-09T17:36:33;2.17;;;0.20;;